sensor_id;sensor_type;location;lat;lon;timestamp;P1;durP1;ratioP1;P2;durP2;ratioP2
44046;SDS011;29713;-33.888;151.150;2023-10-19T00:00:35;4.93;;;1.10;;
44046;SDS011;29713;-33.888;151.150;2023-10-19T00:03:10;7.03;;;1.58;;
44046;SDS011;29713;-33.888;151.150;2023-10-19T00:05:38;10.05;;;1.90;;
44046;SDS011;29713;-33.888;151.150;2023-10-19T00:08:11;4.75;;;1.20;;
44046;SDS011;29713;-33.888;151.150;2023-10-19T00:10:39;3.50;;;1.05;;
44046;SDS011;29713;-33.888;151.150;2023-10-19T00:13:13;3.75;;;1.20;;
44046;SDS011;29713;-33.888;151.150;2023-10-19T00:15:42;4.63;;;1.00;;
44046;SDS011;29713;-33.888;151.150;2023-10-19T00:18:19;3.23;;;1.13;;
44046;SDS011;29713;-33.888;151.150;2023-10-19T00:20:52;4.20;;;1.20;;
44046;SDS011;29713;-33.888;151.150;2023-10-19T00:23:39;6.03;;;1.10;;
44046;SDS011;29713;-33.888;151.150;2023-10-19T00:26:06;3.03;;;1.15;;
44046;SDS011;29713;-33.888;151.150;2023-10-19T00:28:41;3.85;;;1.00;;
44046;SDS011;29713;-33.888;151.150;2023-10-19T00:31:11;3.50;;;1.02;;
44046;SDS011;29713;-33.888;151.150;2023-10-19T00:33:39;3.13;;;0.90;;
44046;SDS011;29713;-33.888;151.150;2023-10-19T00:36:07;3.13;;;1.10;;
44046;SDS011;29713;-33.888;151.150;2023-10-19T00:38:39;4.07;;;1.10;;
44046;SDS011;29713;-33.888;151.150;2023-10-19T00:41:07;2.88;;;1.00;;
44046;SDS011;29713;-33.888;151.150;2023-10-19T00:43:39;3.20;;;1.10;;
44046;SDS011;29713;-33.888;151.150;2023-10-19T00:46:11;9.80;;;1.95;;
44046;SDS011;29713;-33.888;151.150;2023-10-19T00:48:51;3.05;;;1.00;;
44046;SDS011;29713;-33.888;151.150;2023-10-19T00:51:27;4.90;;;1.13;;
44046;SDS011;29713;-33.888;151.150;2023-10-19T00:54:08;4.47;;;1.30;;
44046;SDS011;29713;-33.888;151.150;2023-10-19T00:56:45;3.65;;;1.00;;
44046;SDS011;29713;-33.888;151.150;2023-10-19T00:59:18;4.47;;;1.25;;
44046;SDS011;29713;-33.888;151.150;2023-10-19T01:01:53;3.10;;;0.82;;
44046;SDS011;29713;-33.888;151.150;2023-10-19T01:04:28;2.60;;;0.98;;
44046;SDS011;29713;-33.888;151.150;2023-10-19T01:07:00;3.22;;;1.13;;
44046;SDS011;29713;-33.888;151.150;2023-10-19T01:09:31;5.20;;;1.10;;
44046;SDS011;29713;-33.888;151.150;2023-10-19T01:12:02;4.93;;;1.40;;
44046;SDS011;29713;-33.888;151.150;2023-10-19T01:17:52;2.20;;;0.80;;
44046;SDS011;29713;-33.888;151.150;2023-10-19T01:20:23;2.95;;;0.90;;
44046;SDS011;29713;-33.888;151.150;2023-10-19T01:22:57;2.95;;;1.02;;
44046;SDS011;29713;-33.888;151.150;2023-10-19T01:25:49;2.45;;;0.73;;
44046;SDS011;29713;-33.888;151.150;2023-10-19T01:28:24;4.10;;;0.90;;
44046;SDS011;29713;-33.888;151.150;2023-10-19T01:31:08;3.10;;;0.90;;
44046;SDS011;29713;-33.888;151.150;2023-10-19T01:33:48;1.92;;;0.73;;
44046;SDS011;29713;-33.888;151.150;2023-10-19T01:36:16;2.80;;;0.80;;
44046;SDS011;29713;-33.888;151.150;2023-10-19T01:38:49;3.53;;;1.00;;
44046;SDS011;29713;-33.888;151.150;2023-10-19T01:41:20;3.25;;;0.90;;
44046;SDS011;29713;-33.888;151.150;2023-10-19T01:43:49;2.70;;;0.75;;
44046;SDS011;29713;-33.888;151.150;2023-10-19T01:46:22;3.25;;;0.88;;
44046;SDS011;29713;-33.888;151.150;2023-10-19T01:49:16;3.00;;;0.75;;
44046;SDS011;29713;-33.888;151.150;2023-10-19T01:51:52;3.00;;;1.10;;
44046;SDS011;29713;-33.888;151.150;2023-10-19T01:54:20;3.17;;;0.80;;
44046;SDS011;29713;-33.888;151.150;2023-10-19T01:56:55;2.20;;;0.90;;
44046;SDS011;29713;-33.888;151.150;2023-10-19T01:59:23;3.20;;;0.70;;
44046;SDS011;29713;-33.888;151.150;2023-10-19T02:01:55;2.43;;;0.83;;
44046;SDS011;29713;-33.888;151.150;2023-10-19T02:04:23;2.30;;;0.90;;
44046;SDS011;29713;-33.888;151.150;2023-10-19T02:06:51;1.67;;;0.70;;
44046;SDS011;29713;-33.888;151.150;2023-10-19T02:09:19;2.67;;;0.77;;
44046;SDS011;29713;-33.888;151.150;2023-10-19T02:11:55;3.85;;;0.80;;
44046;SDS011;29713;-33.888;151.150;2023-10-19T02:14:24;3.47;;;1.10;;
44046;SDS011;29713;-33.888;151.150;2023-10-19T02:16:57;1.38;;;0.60;;
44046;SDS011;29713;-33.888;151.150;2023-10-19T02:19:26;2.20;;;0.80;;
44046;SDS011;29713;-33.888;151.150;2023-10-19T02:21:59;2.35;;;0.50;;
44046;SDS011;29713;-33.888;151.150;2023-10-19T02:24:33;3.03;;;0.90;;
44046;SDS011;29713;-33.888;151.150;2023-10-19T02:27:00;4.63;;;1.27;;
44046;SDS011;29713;-33.888;151.150;2023-10-19T02:29:28;4.38;;;1.50;;
44046;SDS011;29713;-33.888;151.150;2023-10-19T02:31:56;2.83;;;1.10;;
44046;SDS011;29713;-33.888;151.150;2023-10-19T02:34:29;1.73;;;0.80;;
44046;SDS011;29713;-33.888;151.150;2023-10-19T02:36:57;2.42;;;1.00;;
44046;SDS011;29713;-33.888;151.150;2023-10-19T02:39:26;3.63;;;1.30;;
44046;SDS011;29713;-33.888;151.150;2023-10-19T02:41:53;3.95;;;0.93;;
44046;SDS011;29713;-33.888;151.150;2023-10-19T02:44:21;3.85;;;1.10;;
44046;SDS011;29713;-33.888;151.150;2023-10-19T02:46:54;3.40;;;1.10;;
44046;SDS011;29713;-33.888;151.150;2023-10-19T02:49:25;2.28;;;1.00;;
44046;SDS011;29713;-33.888;151.150;2023-10-19T02:51:55;2.78;;;0.90;;
44046;SDS011;29713;-33.888;151.150;2023-10-19T02:54:29;3.80;;;1.20;;
44046;SDS011;29713;-33.888;151.150;2023-10-19T02:56:58;5.93;;;1.08;;
44046;SDS011;29713;-33.888;151.150;2023-10-19T02:59:26;4.35;;;1.10;;
44046;SDS011;29713;-33.888;151.150;2023-10-19T03:01:55;3.38;;;1.10;;
44046;SDS011;29713;-33.888;151.150;2023-10-19T03:04:32;2.17;;;0.70;;
44046;SDS011;29713;-33.888;151.150;2023-10-19T03:07:03;2.00;;;0.90;;
44046;SDS011;29713;-33.888;151.150;2023-10-19T03:09:31;1.90;;;0.70;;
44046;SDS011;29713;-33.888;151.150;2023-10-19T03:12:02;1.63;;;0.80;;
44046;SDS011;29713;-33.888;151.150;2023-10-19T03:14:36;3.10;;;1.10;;
44046;SDS011;29713;-33.888;151.150;2023-10-19T03:17:03;2.08;;;0.80;;
44046;SDS011;29713;-33.888;151.150;2023-10-19T03:19:33;3.08;;;1.10;;
44046;SDS011;29713;-33.888;151.150;2023-10-19T03:22:01;2.55;;;0.90;;
44046;SDS011;29713;-33.888;151.150;2023-10-19T03:24:31;2.78;;;1.10;;
44046;SDS011;29713;-33.888;151.150;2023-10-19T03:27:05;3.13;;;1.27;;
44046;SDS011;29713;-33.888;151.150;2023-10-19T03:29:44;2.80;;;1.10;;
44046;SDS011;29713;-33.888;151.150;2023-10-19T03:32:14;2.55;;;1.10;;
44046;SDS011;29713;-33.888;151.150;2023-10-19T03:34:42;3.47;;;1.00;;
44046;SDS011;29713;-33.888;151.150;2023-10-19T03:37:13;3.22;;;1.20;;
44046;SDS011;29713;-33.888;151.150;2023-10-19T03:39:42;3.72;;;1.00;;
44046;SDS011;29713;-33.888;151.150;2023-10-19T03:42:11;4.75;;;1.42;;
44046;SDS011;29713;-33.888;151.150;2023-10-19T03:44:40;4.32;;;1.23;;
44046;SDS011;29713;-33.888;151.150;2023-10-19T03:47:27;4.43;;;1.15;;
44046;SDS011;29713;-33.888;151.150;2023-10-19T03:50:01;4.90;;;1.30;;
44046;SDS011;29713;-33.888;151.150;2023-10-19T03:52:39;8.15;;;1.20;;
44046;SDS011;29713;-33.888;151.150;2023-10-19T03:55:07;4.45;;;1.17;;
44046;SDS011;29713;-33.888;151.150;2023-10-19T03:57:40;4.67;;;1.30;;
44046;SDS011;29713;-33.888;151.150;2023-10-19T04:00:12;8.40;;;1.70;;
44046;SDS011;29713;-33.888;151.150;2023-10-19T04:02:50;4.68;;;1.38;;
44046;SDS011;29713;-33.888;151.150;2023-10-19T04:05:24;5.88;;;1.30;;
44046;SDS011;29713;-33.888;151.150;2023-10-19T04:07:54;4.40;;;1.13;;
44046;SDS011;29713;-33.888;151.150;2023-10-19T04:10:24;3.15;;;1.00;;
44046;SDS011;29713;-33.888;151.150;2023-10-19T04:12:58;4.75;;;1.20;;
44046;SDS011;29713;-33.888;151.150;2023-10-19T04:15:27;3.65;;;1.15;;
44046;SDS011;29713;-33.888;151.150;2023-10-19T04:18:03;5.57;;;1.30;;
44046;SDS011;29713;-33.888;151.150;2023-10-19T04:20:38;3.50;;;1.17;;
44046;SDS011;29713;-33.888;151.150;2023-10-19T04:23:18;3.80;;;1.05;;
44046;SDS011;29713;-33.888;151.150;2023-10-19T04:25:59;3.33;;;1.20;;
44046;SDS011;29713;-33.888;151.150;2023-10-19T04:28:40;3.45;;;1.02;;
44046;SDS011;29713;-33.888;151.150;2023-10-19T04:31:17;4.43;;;1.23;;
44046;SDS011;29713;-33.888;151.150;2023-10-19T04:33:47;4.55;;;1.10;;
44046;SDS011;29713;-33.888;151.150;2023-10-19T04:36:15;3.42;;;1.20;;
44046;SDS011;29713;-33.888;151.150;2023-10-19T04:38:47;4.75;;;1.27;;
44046;SDS011;29713;-33.888;151.150;2023-10-19T04:41:14;4.20;;;1.17;;
44046;SDS011;29713;-33.888;151.150;2023-10-19T04:43:42;4.07;;;1.45;;
44046;SDS011;29713;-33.888;151.150;2023-10-19T04:46:15;3.08;;;1.00;;
44046;SDS011;29713;-33.888;151.150;2023-10-19T04:48:44;4.38;;;0.98;;
44046;SDS011;29713;-33.888;151.150;2023-10-19T04:51:12;3.22;;;1.10;;
44046;SDS011;29713;-33.888;151.150;2023-10-19T04:53:39;3.95;;;1.35;;
44046;SDS011;29713;-33.888;151.150;2023-10-19T04:56:07;2.47;;;1.00;;
44046;SDS011;29713;-33.888;151.150;2023-10-19T04:58:35;2.55;;;0.90;;
44046;SDS011;29713;-33.888;151.150;2023-10-19T05:01:03;4.00;;;1.08;;
44046;SDS011;29713;-33.888;151.150;2023-10-19T05:03:31;2.60;;;1.13;;
44046;SDS011;29713;-33.888;151.150;2023-10-19T05:05:58;3.00;;;1.00;;
44046;SDS011;29713;-33.888;151.150;2023-10-19T05:08:27;5.25;;;1.10;;
44046;SDS011;29713;-33.888;151.150;2023-10-19T05:10:55;4.07;;;1.00;;
44046;SDS011;29713;-33.888;151.150;2023-10-19T05:13:25;4.60;;;1.02;;
44046;SDS011;29713;-33.888;151.150;2023-10-19T05:15:53;3.17;;;1.00;;
44046;SDS011;29713;-33.888;151.150;2023-10-19T05:18:21;4.50;;;1.00;;
44046;SDS011;29713;-33.888;151.150;2023-10-19T05:20:49;4.72;;;1.05;;
44046;SDS011;29713;-33.888;151.150;2023-10-19T05:23:23;2.40;;;0.93;;
44046;SDS011;29713;-33.888;151.150;2023-10-19T05:25:53;3.78;;;1.00;;
44046;SDS011;29713;-33.888;151.150;2023-10-19T05:28:28;4.00;;;1.15;;
44046;SDS011;29713;-33.888;151.150;2023-10-19T05:30:56;2.30;;;1.10;;
44046;SDS011;29713;-33.888;151.150;2023-10-19T05:33:27;3.42;;;1.10;;
44046;SDS011;29713;-33.888;151.150;2023-10-19T05:35:55;3.00;;;0.95;;
44046;SDS011;29713;-33.888;151.150;2023-10-19T05:38:23;5.65;;;1.25;;
44046;SDS011;29713;-33.888;151.150;2023-10-19T05:40:50;2.90;;;1.00;;
44046;SDS011;29713;-33.888;151.150;2023-10-19T05:43:18;3.87;;;1.10;;
44046;SDS011;29713;-33.888;151.150;2023-10-19T05:45:45;3.63;;;1.10;;
44046;SDS011;29713;-33.888;151.150;2023-10-19T05:48:15;5.03;;;1.10;;
44046;SDS011;29713;-33.888;151.150;2023-10-19T05:50:43;6.22;;;1.20;;
44046;SDS011;29713;-33.888;151.150;2023-10-19T05:53:11;3.85;;;1.00;;
44046;SDS011;29713;-33.888;151.150;2023-10-19T05:55:40;2.88;;;1.02;;
44046;SDS011;29713;-33.888;151.150;2023-10-19T05:58:08;3.30;;;0.95;;
44046;SDS011;29713;-33.888;151.150;2023-10-19T06:00:35;3.35;;;1.10;;
44046;SDS011;29713;-33.888;151.150;2023-10-19T06:03:03;3.85;;;1.17;;
44046;SDS011;29713;-33.888;151.150;2023-10-19T06:05:30;3.88;;;1.08;;
44046;SDS011;29713;-33.888;151.150;2023-10-19T06:08:01;4.93;;;1.20;;
44046;SDS011;29713;-33.888;151.150;2023-10-19T06:10:30;3.50;;;0.90;;
44046;SDS011;29713;-33.888;151.150;2023-10-19T06:13:01;4.50;;;1.00;;
44046;SDS011;29713;-33.888;151.150;2023-10-19T06:15:29;2.47;;;0.95;;
44046;SDS011;29713;-33.888;151.150;2023-10-19T06:17:57;3.35;;;0.90;;
44046;SDS011;29713;-33.888;151.150;2023-10-19T06:20:25;3.05;;;0.90;;
44046;SDS011;29713;-33.888;151.150;2023-10-19T06:22:53;3.63;;;1.10;;
44046;SDS011;29713;-33.888;151.150;2023-10-19T06:25:29;5.35;;;1.20;;
44046;SDS011;29713;-33.888;151.150;2023-10-19T06:28:07;3.97;;;1.15;;
44046;SDS011;29713;-33.888;151.150;2023-10-19T06:30:37;4.10;;;1.00;;
44046;SDS011;29713;-33.888;151.150;2023-10-19T06:33:08;5.35;;;0.93;;
44046;SDS011;29713;-33.888;151.150;2023-10-19T06:35:36;5.30;;;1.23;;
44046;SDS011;29713;-33.888;151.150;2023-10-19T06:38:04;3.33;;;0.90;;
44046;SDS011;29713;-33.888;151.150;2023-10-19T06:40:35;4.75;;;1.33;;
44046;SDS011;29713;-33.888;151.150;2023-10-19T06:43:03;3.60;;;1.02;;
44046;SDS011;29713;-33.888;151.150;2023-10-19T06:45:31;4.85;;;1.08;;
44046;SDS011;29713;-33.888;151.150;2023-10-19T06:47:59;4.97;;;1.00;;
44046;SDS011;29713;-33.888;151.150;2023-10-19T06:50:29;3.50;;;1.30;;
44046;SDS011;29713;-33.888;151.150;2023-10-19T06:52:57;4.47;;;1.10;;
44046;SDS011;29713;-33.888;151.150;2023-10-19T06:55:25;2.75;;;0.95;;
44046;SDS011;29713;-33.888;151.150;2023-10-19T06:57:54;4.35;;;1.10;;
44046;SDS011;29713;-33.888;151.150;2023-10-19T07:00:22;3.58;;;0.90;;
44046;SDS011;29713;-33.888;151.150;2023-10-19T07:02:55;2.30;;;0.77;;
44046;SDS011;29713;-33.888;151.150;2023-10-19T07:05:28;1.85;;;1.00;;
44046;SDS011;29713;-33.888;151.150;2023-10-19T07:07:55;5.35;;;1.13;;
44046;SDS011;29713;-33.888;151.150;2023-10-19T07:10:25;4.40;;;1.35;;
44046;SDS011;29713;-33.888;151.150;2023-10-19T07:12:55;4.05;;;1.38;;
44046;SDS011;29713;-33.888;151.150;2023-10-19T07:15:23;4.07;;;1.00;;
44046;SDS011;29713;-33.888;151.150;2023-10-19T07:17:55;4.00;;;1.00;;
44046;SDS011;29713;-33.888;151.150;2023-10-19T07:20:24;3.85;;;1.30;;
44046;SDS011;29713;-33.888;151.150;2023-10-19T07:23:02;2.70;;;1.20;;
44046;SDS011;29713;-33.888;151.150;2023-10-19T07:25:35;3.53;;;1.30;;
44046;SDS011;29713;-33.888;151.150;2023-10-19T07:28:10;4.27;;;1.30;;
44046;SDS011;29713;-33.888;151.150;2023-10-19T07:30:43;5.28;;;2.00;;
44046;SDS011;29713;-33.888;151.150;2023-10-19T07:33:12;4.43;;;1.40;;
44046;SDS011;29713;-33.888;151.150;2023-10-19T07:35:44;4.73;;;1.40;;
44046;SDS011;29713;-33.888;151.150;2023-10-19T07:38:13;3.78;;;1.45;;
44046;SDS011;29713;-33.888;151.150;2023-10-19T07:40:43;4.32;;;1.40;;
44046;SDS011;29713;-33.888;151.150;2023-10-19T07:43:10;6.32;;;1.63;;
44046;SDS011;29713;-33.888;151.150;2023-10-19T07:45:38;6.67;;;1.83;;
44046;SDS011;29713;-33.888;151.150;2023-10-19T07:48:06;4.57;;;1.45;;
44046;SDS011;29713;-33.888;151.150;2023-10-19T07:50:36;3.67;;;1.38;;
44046;SDS011;29713;-33.888;151.150;2023-10-19T07:53:08;4.05;;;1.35;;
44046;SDS011;29713;-33.888;151.150;2023-10-19T07:55:36;5.50;;;1.50;;
44046;SDS011;29713;-33.888;151.150;2023-10-19T07:58:06;4.05;;;1.40;;
44046;SDS011;29713;-33.888;151.150;2023-10-19T08:00:34;4.47;;;1.20;;
44046;SDS011;29713;-33.888;151.150;2023-10-19T08:03:02;5.25;;;1.38;;
44046;SDS011;29713;-33.888;151.150;2023-10-19T08:05:35;4.20;;;1.23;;
44046;SDS011;29713;-33.888;151.150;2023-10-19T08:08:04;4.85;;;1.13;;
44046;SDS011;29713;-33.888;151.150;2023-10-19T08:10:31;5.88;;;1.30;;
44046;SDS011;29713;-33.888;151.150;2023-10-19T08:13:00;4.68;;;1.40;;
44046;SDS011;29713;-33.888;151.150;2023-10-19T08:15:29;6.45;;;1.58;;
44046;SDS011;29713;-33.888;151.150;2023-10-19T08:17:56;5.25;;;1.60;;
44046;SDS011;29713;-33.888;151.150;2023-10-19T08:20:24;3.33;;;1.45;;
44046;SDS011;29713;-33.888;151.150;2023-10-19T08:22:58;5.47;;;1.40;;
44046;SDS011;29713;-33.888;151.150;2023-10-19T08:25:31;4.28;;;1.35;;
44046;SDS011;29713;-33.888;151.150;2023-10-19T08:27:59;4.95;;;1.77;;
44046;SDS011;29713;-33.888;151.150;2023-10-19T08:30:36;5.00;;;1.60;;
44046;SDS011;29713;-33.888;151.150;2023-10-19T08:33:06;6.47;;;1.50;;
44046;SDS011;29713;-33.888;151.150;2023-10-19T08:35:34;5.20;;;2.03;;
44046;SDS011;29713;-33.888;151.150;2023-10-19T08:38:01;5.80;;;1.97;;
44046;SDS011;29713;-33.888;151.150;2023-10-19T08:40:35;6.15;;;1.50;;
44046;SDS011;29713;-33.888;151.150;2023-10-19T08:43:03;7.90;;;2.28;;
44046;SDS011;29713;-33.888;151.150;2023-10-19T08:45:31;5.80;;;1.73;;
44046;SDS011;29713;-33.888;151.150;2023-10-19T08:48:01;4.78;;;1.58;;
44046;SDS011;29713;-33.888;151.150;2023-10-19T08:50:31;6.00;;;2.00;;
44046;SDS011;29713;-33.888;151.150;2023-10-19T08:53:01;6.88;;;1.83;;
44046;SDS011;29713;-33.888;151.150;2023-10-19T08:55:30;7.15;;;1.60;;
44046;SDS011;29713;-33.888;151.150;2023-10-19T08:58:01;8.07;;;1.77;;
44046;SDS011;29713;-33.888;151.150;2023-10-19T09:00:45;6.38;;;1.60;;
44046;SDS011;29713;-33.888;151.150;2023-10-19T09:03:23;6.95;;;1.77;;
44046;SDS011;29713;-33.888;151.150;2023-10-19T09:05:52;6.20;;;2.00;;
44046;SDS011;29713;-33.888;151.150;2023-10-19T09:08:20;5.80;;;1.80;;
44046;SDS011;29713;-33.888;151.150;2023-10-19T09:10:48;9.48;;;2.00;;
44046;SDS011;29713;-33.888;151.150;2023-10-19T09:13:19;6.20;;;1.73;;
44046;SDS011;29713;-33.888;151.150;2023-10-19T09:15:48;6.35;;;1.73;;
44046;SDS011;29713;-33.888;151.150;2023-10-19T09:18:19;9.80;;;2.17;;
44046;SDS011;29713;-33.888;151.150;2023-10-19T09:20:49;7.63;;;1.80;;
44046;SDS011;29713;-33.888;151.150;2023-10-19T09:23:34;6.50;;;1.70;;
44046;SDS011;29713;-33.888;151.150;2023-10-19T09:26:02;11.18;;;2.00;;
44046;SDS011;29713;-33.888;151.150;2023-10-19T09:28:31;8.68;;;1.77;;
44046;SDS011;29713;-33.888;151.150;2023-10-19T09:31:02;7.80;;;2.33;;
44046;SDS011;29713;-33.888;151.150;2023-10-19T09:33:33;8.38;;;2.90;;
44046;SDS011;29713;-33.888;151.150;2023-10-19T09:36:02;7.30;;;2.17;;
44046;SDS011;29713;-33.888;151.150;2023-10-19T09:38:31;6.85;;;1.85;;
44046;SDS011;29713;-33.888;151.150;2023-10-19T09:40:59;7.50;;;1.95;;
44046;SDS011;29713;-33.888;151.150;2023-10-19T09:43:43;9.00;;;1.80;;
44046;SDS011;29713;-33.888;151.150;2023-10-19T09:46:12;9.00;;;2.10;;
44046;SDS011;29713;-33.888;151.150;2023-10-19T09:48:47;7.93;;;2.03;;
44046;SDS011;29713;-33.888;151.150;2023-10-19T09:51:15;7.35;;;1.80;;
44046;SDS011;29713;-33.888;151.150;2023-10-19T09:54:08;5.50;;;1.75;;
44046;SDS011;29713;-33.888;151.150;2023-10-19T09:56:38;7.25;;;1.88;;
44046;SDS011;29713;-33.888;151.150;2023-10-19T10:02:12;7.10;;;1.80;;
44046;SDS011;29713;-33.888;151.150;2023-10-19T10:04:43;7.47;;;1.80;;
44046;SDS011;29713;-33.888;151.150;2023-10-19T10:07:14;6.90;;;1.90;;
44046;SDS011;29713;-33.888;151.150;2023-10-19T10:09:43;8.48;;;1.80;;
44046;SDS011;29713;-33.888;151.150;2023-10-19T10:12:18;8.75;;;1.63;;
44046;SDS011;29713;-33.888;151.150;2023-10-19T10:17:27;6.63;;;1.75;;
44046;SDS011;29713;-33.888;151.150;2023-10-19T10:19:55;7.25;;;1.35;;
44046;SDS011;29713;-33.888;151.150;2023-10-19T10:22:44;6.95;;;1.70;;
44046;SDS011;29713;-33.888;151.150;2023-10-19T10:25:31;10.35;;;2.22;;
44046;SDS011;29713;-33.888;151.150;2023-10-19T10:28:02;9.00;;;2.00;;
44046;SDS011;29713;-33.888;151.150;2023-10-19T10:30:30;5.90;;;1.70;;
44046;SDS011;29713;-33.888;151.150;2023-10-19T10:32:58;5.63;;;1.58;;
44046;SDS011;29713;-33.888;151.150;2023-10-19T10:38:05;5.63;;;1.80;;
44046;SDS011;29713;-33.888;151.150;2023-10-19T10:40:49;7.28;;;1.77;;
44046;SDS011;29713;-33.888;151.150;2023-10-19T10:43:18;6.15;;;1.63;;
44046;SDS011;29713;-33.888;151.150;2023-10-19T10:45:47;5.25;;;1.48;;
44046;SDS011;29713;-33.888;151.150;2023-10-19T10:48:15;7.07;;;1.65;;
44046;SDS011;29713;-33.888;151.150;2023-10-19T10:50:44;7.03;;;1.80;;
44046;SDS011;29713;-33.888;151.150;2023-10-19T10:53:12;5.10;;;1.50;;
44046;SDS011;29713;-33.888;151.150;2023-10-19T10:55:44;7.45;;;1.75;;
44046;SDS011;29713;-33.888;151.150;2023-10-19T10:58:17;7.75;;;1.70;;
44046;SDS011;29713;-33.888;151.150;2023-10-19T11:00:46;7.57;;;1.95;;
44046;SDS011;29713;-33.888;151.150;2023-10-19T11:03:16;8.32;;;1.67;;
44046;SDS011;29713;-33.888;151.150;2023-10-19T11:05:44;5.60;;;1.50;;
44046;SDS011;29713;-33.888;151.150;2023-10-19T11:08:12;7.28;;;1.70;;
44046;SDS011;29713;-33.888;151.150;2023-10-19T11:10:46;6.07;;;1.42;;
44046;SDS011;29713;-33.888;151.150;2023-10-19T11:13:14;4.28;;;1.63;;
44046;SDS011;29713;-33.888;151.150;2023-10-19T11:15:52;5.22;;;1.30;;
44046;SDS011;29713;-33.888;151.150;2023-10-19T11:18:38;4.65;;;1.55;;
44046;SDS011;29713;-33.888;151.150;2023-10-19T11:21:09;6.47;;;1.70;;
44046;SDS011;29713;-33.888;151.150;2023-10-19T11:26:21;10.77;;;2.10;;
44046;SDS011;29713;-33.888;151.150;2023-10-19T11:31:56;7.60;;;1.73;;
44046;SDS011;29713;-33.888;151.150;2023-10-19T11:34:25;6.10;;;1.65;;
44046;SDS011;29713;-33.888;151.150;2023-10-19T11:36:55;6.00;;;1.80;;
44046;SDS011;29713;-33.888;151.150;2023-10-19T11:39:25;7.20;;;1.75;;
44046;SDS011;29713;-33.888;151.150;2023-10-19T11:41:52;7.70;;;2.10;;
44046;SDS011;29713;-33.888;151.150;2023-10-19T11:44:20;5.53;;;1.58;;
44046;SDS011;29713;-33.888;151.150;2023-10-19T11:46:48;5.97;;;1.40;;
44046;SDS011;29713;-33.888;151.150;2023-10-19T11:49:15;7.00;;;1.85;;
44046;SDS011;29713;-33.888;151.150;2023-10-19T11:51:42;5.55;;;1.52;;
44046;SDS011;29713;-33.888;151.150;2023-10-19T11:54:09;9.50;;;1.92;;
44046;SDS011;29713;-33.888;151.150;2023-10-19T11:56:38;5.78;;;1.45;;
44046;SDS011;29713;-33.888;151.150;2023-10-19T11:59:05;7.25;;;1.70;;
44046;SDS011;29713;-33.888;151.150;2023-10-19T12:01:36;4.25;;;1.30;;
44046;SDS011;29713;-33.888;151.150;2023-10-19T12:04:04;5.90;;;1.35;;
44046;SDS011;29713;-33.888;151.150;2023-10-19T12:06:32;7.82;;;1.90;;
44046;SDS011;29713;-33.888;151.150;2023-10-19T12:08:59;6.00;;;1.50;;
44046;SDS011;29713;-33.888;151.150;2023-10-19T12:11:43;6.18;;;1.48;;
44046;SDS011;29713;-33.888;151.150;2023-10-19T12:14:11;5.32;;;1.40;;
44046;SDS011;29713;-33.888;151.150;2023-10-19T12:16:40;4.90;;;1.40;;
44046;SDS011;29713;-33.888;151.150;2023-10-19T12:19:08;6.78;;;1.45;;
44046;SDS011;29713;-33.888;151.150;2023-10-19T12:21:36;6.60;;;1.45;;
44046;SDS011;29713;-33.888;151.150;2023-10-19T12:24:10;6.55;;;1.42;;
44046;SDS011;29713;-33.888;151.150;2023-10-19T12:26:37;4.93;;;1.40;;
44046;SDS011;29713;-33.888;151.150;2023-10-19T12:29:05;5.28;;;1.45;;
44046;SDS011;29713;-33.888;151.150;2023-10-19T12:31:36;6.10;;;1.40;;
44046;SDS011;29713;-33.888;151.150;2023-10-19T12:34:05;5.55;;;1.40;;
44046;SDS011;29713;-33.888;151.150;2023-10-19T12:36:37;4.80;;;1.50;;
44046;SDS011;29713;-33.888;151.150;2023-10-19T12:39:04;6.28;;;1.80;;
44046;SDS011;29713;-33.888;151.150;2023-10-19T12:41:32;4.55;;;1.27;;
44046;SDS011;29713;-33.888;151.150;2023-10-19T12:44:00;6.13;;;1.65;;
44046;SDS011;29713;-33.888;151.150;2023-10-19T12:46:33;4.43;;;1.45;;
44046;SDS011;29713;-33.888;151.150;2023-10-19T12:49:07;5.97;;;1.55;;
44046;SDS011;29713;-33.888;151.150;2023-10-19T12:51:39;4.93;;;1.43;;
44046;SDS011;29713;-33.888;151.150;2023-10-19T12:54:08;4.55;;;1.50;;
44046;SDS011;29713;-33.888;151.150;2023-10-19T12:56:36;4.20;;;1.30;;
44046;SDS011;29713;-33.888;151.150;2023-10-19T12:59:04;5.57;;;1.70;;
44046;SDS011;29713;-33.888;151.150;2023-10-19T13:01:33;7.83;;;1.90;;
44046;SDS011;29713;-33.888;151.150;2023-10-19T13:04:01;6.55;;;1.67;;
44046;SDS011;29713;-33.888;151.150;2023-10-19T13:06:39;7.28;;;1.63;;
44046;SDS011;29713;-33.888;151.150;2023-10-19T13:09:06;6.93;;;1.80;;
44046;SDS011;29713;-33.888;151.150;2023-10-19T13:11:34;8.27;;;1.85;;
44046;SDS011;29713;-33.888;151.150;2023-10-19T13:14:04;6.82;;;1.85;;
44046;SDS011;29713;-33.888;151.150;2023-10-19T13:16:32;4.85;;;1.70;;
44046;SDS011;29713;-33.888;151.150;2023-10-19T13:18:59;5.53;;;1.55;;
44046;SDS011;29713;-33.888;151.150;2023-10-19T13:21:34;6.17;;;1.63;;
44046;SDS011;29713;-33.888;151.150;2023-10-19T13:24:03;6.15;;;1.75;;
44046;SDS011;29713;-33.888;151.150;2023-10-19T13:26:31;7.65;;;1.70;;
44046;SDS011;29713;-33.888;151.150;2023-10-19T13:28:59;6.28;;;1.60;;
44046;SDS011;29713;-33.888;151.150;2023-10-19T13:31:27;6.78;;;2.05;;
44046;SDS011;29713;-33.888;151.150;2023-10-19T13:33:55;7.22;;;2.10;;
44046;SDS011;29713;-33.888;151.150;2023-10-19T13:36:22;5.85;;;2.00;;
44046;SDS011;29713;-33.888;151.150;2023-10-19T13:38:49;7.38;;;1.88;;
44046;SDS011;29713;-33.888;151.150;2023-10-19T13:41:17;5.88;;;1.85;;
44046;SDS011;29713;-33.888;151.150;2023-10-19T13:43:44;5.43;;;2.03;;
44046;SDS011;29713;-33.888;151.150;2023-10-19T13:46:13;6.15;;;1.90;;
44046;SDS011;29713;-33.888;151.150;2023-10-19T13:48:40;5.22;;;1.88;;
44046;SDS011;29713;-33.888;151.150;2023-10-19T13:51:08;6.75;;;1.92;;
44046;SDS011;29713;-33.888;151.150;2023-10-19T13:53:41;5.35;;;1.90;;
44046;SDS011;29713;-33.888;151.150;2023-10-19T13:56:10;5.38;;;1.70;;
44046;SDS011;29713;-33.888;151.150;2023-10-19T13:58:38;6.97;;;2.20;;
44046;SDS011;29713;-33.888;151.150;2023-10-19T14:01:09;5.63;;;1.73;;
44046;SDS011;29713;-33.888;151.150;2023-10-19T14:03:38;6.70;;;2.00;;
44046;SDS011;29713;-33.888;151.150;2023-10-19T14:06:05;5.63;;;1.80;;
44046;SDS011;29713;-33.888;151.150;2023-10-19T14:08:42;4.97;;;1.97;;
44046;SDS011;29713;-33.888;151.150;2023-10-19T14:11:10;6.47;;;1.83;;
44046;SDS011;29713;-33.888;151.150;2023-10-19T14:13:38;8.15;;;2.17;;
44046;SDS011;29713;-33.888;151.150;2023-10-19T14:16:08;6.97;;;1.90;;
44046;SDS011;29713;-33.888;151.150;2023-10-19T14:18:36;6.33;;;1.70;;
44046;SDS011;29713;-33.888;151.150;2023-10-19T14:21:16;5.37;;;1.90;;
44046;SDS011;29713;-33.888;151.150;2023-10-19T14:23:45;6.13;;;1.67;;
44046;SDS011;29713;-33.888;151.150;2023-10-19T14:26:13;6.43;;;1.80;;
44046;SDS011;29713;-33.888;151.150;2023-10-19T14:28:42;8.52;;;1.95;;
44046;SDS011;29713;-33.888;151.150;2023-10-19T14:31:09;5.27;;;2.10;;
44046;SDS011;29713;-33.888;151.150;2023-10-19T14:33:37;5.95;;;1.88;;
44046;SDS011;29713;-33.888;151.150;2023-10-19T14:36:05;6.18;;;1.98;;
44046;SDS011;29713;-33.888;151.150;2023-10-19T14:38:33;5.72;;;1.90;;
44046;SDS011;29713;-33.888;151.150;2023-10-19T14:41:01;6.57;;;1.80;;
44046;SDS011;29713;-33.888;151.150;2023-10-19T14:43:29;5.57;;;1.85;;
44046;SDS011;29713;-33.888;151.150;2023-10-19T14:45:58;4.53;;;1.80;;